<?xml version="1.0" encoding="UTF-8" standalone="no" ?>
<gpx xmlns="http://www.topografix.com/GPX/1/1" xmlns:xsi="http://www.w3.org/2001/XMLSchema-instance" xsi:schemaLocation="http://www.topografix.com/GPX/1/1 http://www.topografix.com/GPX/1/1/gpx.xsd" version="1.1" creator="VisuGPX - https://www.visugpx.com">
  <metadata>
    <name>Oenorando Draille des crozes</name>
  </metadata>
  <trk>
    <name><![CDATA[Oenorando Draille des crozes]]></name>
    <extensions>
      <line xmlns="http://www.topografix.com/GPX/gpx_style/0/2">
        <color>0000FF</color>
        <width>4</width>
      </line>
    </extensions>
    <trkseg>
      <trkpt lat="43.57319" lon="3.36356">
        <ele>102.137</ele>
        <time>2021-10-04T13:29:54Z</time>
      </trkpt>
      <trkpt lat="43.57363" lon="3.36371">
        <ele>101.349</ele>
        <time>2021-10-04T13:30:34Z</time>
      </trkpt>
      <trkpt lat="43.57398" lon="3.36361">
        <ele>102.313</ele>
        <time>2021-10-04T13:31:14Z</time>
      </trkpt>
      <trkpt lat="43.57436" lon="3.3635">
        <ele>104.208</ele>
        <time>2021-10-04T13:31:54Z</time>
      </trkpt>
      <trkpt lat="43.57484" lon="3.36355">
        <ele>107.849</ele>
        <time>2021-10-04T13:32:34Z</time>
      </trkpt>
      <trkpt lat="43.57527" lon="3.3637">
        <ele>110.028</ele>
        <time>2021-10-04T13:33:14Z</time>
      </trkpt>
      <trkpt lat="43.57577" lon="3.36374">
        <ele>110.453</ele>
        <time>2021-10-04T13:33:54Z</time>
      </trkpt>
      <trkpt lat="43.57585" lon="3.36315">
        <ele>112.752</ele>
        <time>2021-10-04T13:34:34Z</time>
      </trkpt>
      <trkpt lat="43.57582" lon="3.3629">
        <ele>113.517</ele>
        <time>2021-10-04T13:35:14Z</time>
      </trkpt>
      <trkpt lat="43.57607" lon="3.3625">
        <ele>115.736</ele>
        <time>2021-10-04T13:35:54Z</time>
      </trkpt>
      <trkpt lat="43.57656" lon="3.36195">
        <ele>120.258</ele>
        <time>2021-10-04T13:36:34Z</time>
      </trkpt>
      <trkpt lat="43.5767" lon="3.3618">
        <ele>121.222</ele>
        <time>2021-10-04T13:37:14Z</time>
      </trkpt>
      <trkpt lat="43.57665" lon="3.36113">
        <ele>121.945</ele>
        <time>2021-10-04T13:37:54Z</time>
      </trkpt>
      <trkpt lat="43.57656" lon="3.36076">
        <ele>122.047</ele>
        <time>2021-10-04T13:38:34Z</time>
      </trkpt>
      <trkpt lat="43.5763" lon="3.36011">
        <ele>120.811</ele>
        <time>2021-10-04T13:39:14Z</time>
      </trkpt>
      <trkpt lat="43.57613" lon="3.35955">
        <ele>120.808</ele>
        <time>2021-10-04T13:39:54Z</time>
      </trkpt>
      <trkpt lat="43.57603" lon="3.35897">
        <ele>121.55</ele>
        <time>2021-10-04T13:40:34Z</time>
      </trkpt>
      <trkpt lat="43.57599" lon="3.35808">
        <ele>123.779</ele>
        <time>2021-10-04T13:41:14Z</time>
      </trkpt>
      <trkpt lat="43.5759" lon="3.35758">
        <ele>123.214</ele>
        <time>2021-10-04T13:41:54Z</time>
      </trkpt>
      <trkpt lat="43.57568" lon="3.3573">
        <ele>120.983</ele>
        <time>2021-10-04T13:42:34Z</time>
      </trkpt>
      <trkpt lat="43.57546" lon="3.35675">
        <ele>119.738</ele>
        <time>2021-10-04T13:43:14Z</time>
      </trkpt>
      <trkpt lat="43.57527" lon="3.35662">
        <ele>120.027</ele>
        <time>2021-10-04T13:43:54Z</time>
      </trkpt>
      <trkpt lat="43.57509" lon="3.35639">
        <ele>120.079</ele>
        <time>2021-10-04T13:44:34Z</time>
      </trkpt>
      <trkpt lat="43.57501" lon="3.3562">
        <ele>120.073</ele>
        <time>2021-10-04T13:45:14Z</time>
      </trkpt>
      <trkpt lat="43.57499" lon="3.35586">
        <ele>121.271</ele>
        <time>2021-10-04T13:45:54Z</time>
      </trkpt>
      <trkpt lat="43.57485" lon="3.35564">
        <ele>125.341</ele>
        <time>2021-10-04T13:46:34Z</time>
      </trkpt>
      <trkpt lat="43.57457" lon="3.35549">
        <ele>132.015</ele>
        <time>2021-10-04T13:47:14Z</time>
      </trkpt>
      <trkpt lat="43.57434" lon="3.35511">
        <ele>135.308</ele>
        <time>2021-10-04T13:47:54Z</time>
      </trkpt>
      <trkpt lat="43.57403" lon="3.35489">
        <ele>139.243</ele>
        <time>2021-10-04T13:48:34Z</time>
      </trkpt>
      <trkpt lat="43.57358" lon="3.35476">
        <ele>146.042</ele>
        <time>2021-10-04T13:49:14Z</time>
      </trkpt>
      <trkpt lat="43.57314" lon="3.35478">
        <ele>154.617</ele>
        <time>2021-10-04T13:49:54Z</time>
      </trkpt>
      <trkpt lat="43.57266" lon="3.35463">
        <ele>155.696</ele>
        <time>2021-10-04T13:50:34Z</time>
      </trkpt>
      <trkpt lat="43.57224" lon="3.35431">
        <ele>161.121</ele>
        <time>2021-10-04T13:51:14Z</time>
      </trkpt>
      <trkpt lat="43.57212" lon="3.35408">
        <ele>162.39</ele>
        <time>2021-10-04T13:51:54Z</time>
      </trkpt>
      <trkpt lat="43.57203" lon="3.35374">
        <ele>166.592</ele>
        <time>2021-10-04T13:52:34Z</time>
      </trkpt>
      <trkpt lat="43.57176" lon="3.35313">
        <ele>176.316</ele>
        <time>2021-10-04T13:53:14Z</time>
      </trkpt>
      <trkpt lat="43.57161" lon="3.3528">
        <ele>181.048</ele>
        <time>2021-10-04T13:53:54Z</time>
      </trkpt>
      <trkpt lat="43.5715" lon="3.35267">
        <ele>182.561</ele>
        <time>2021-10-04T13:54:34Z</time>
      </trkpt>
      <trkpt lat="43.57139" lon="3.35253">
        <ele>183.217</ele>
        <time>2021-10-04T13:55:14Z</time>
      </trkpt>
      <trkpt lat="43.57126" lon="3.35239">
        <ele>184.008</ele>
        <time>2021-10-04T13:55:54Z</time>
      </trkpt>
      <trkpt lat="43.57105" lon="3.35227">
        <ele>185.62</ele>
        <time>2021-10-04T13:56:34Z</time>
      </trkpt>
      <trkpt lat="43.5708" lon="3.35205">
        <ele>189.029</ele>
        <time>2021-10-04T13:57:14Z</time>
      </trkpt>
      <trkpt lat="43.57044" lon="3.35184">
        <ele>195.834</ele>
        <time>2021-10-04T13:57:54Z</time>
      </trkpt>
      <trkpt lat="43.57018" lon="3.35158">
        <ele>197.633</ele>
        <time>2021-10-04T13:58:34Z</time>
      </trkpt>
      <trkpt lat="43.56998" lon="3.35124">
        <ele>199.238</ele>
        <time>2021-10-04T13:59:14Z</time>
      </trkpt>
      <trkpt lat="43.56978" lon="3.35113">
        <ele>201.997</ele>
        <time>2021-10-04T13:59:54Z</time>
      </trkpt>
      <trkpt lat="43.56953" lon="3.35091">
        <ele>205.999</ele>
        <time>2021-10-04T14:00:34Z</time>
      </trkpt>
      <trkpt lat="43.56954" lon="3.35061">
        <ele>212.083</ele>
        <time>2021-10-04T14:01:14Z</time>
      </trkpt>
      <trkpt lat="43.56959" lon="3.35041">
        <ele>215.585</ele>
        <time>2021-10-04T14:01:54Z</time>
      </trkpt>
      <trkpt lat="43.56964" lon="3.35026">
        <ele>216.889</ele>
        <time>2021-10-04T14:02:34Z</time>
      </trkpt>
      <trkpt lat="43.56969" lon="3.35004">
        <ele>218.317</ele>
        <time>2021-10-04T14:03:14Z</time>
      </trkpt>
      <trkpt lat="43.56964" lon="3.34982">
        <ele>224.508</ele>
        <time>2021-10-04T14:03:54Z</time>
      </trkpt>
      <trkpt lat="43.56963" lon="3.34963">
        <ele>228.344</ele>
        <time>2021-10-04T14:04:34Z</time>
      </trkpt>
      <trkpt lat="43.56961" lon="3.34942">
        <ele>231.893</ele>
        <time>2021-10-04T14:05:14Z</time>
      </trkpt>
      <trkpt lat="43.56958" lon="3.34913">
        <ele>233.568</ele>
        <time>2021-10-04T14:05:54Z</time>
      </trkpt>
      <trkpt lat="43.56956" lon="3.34893">
        <ele>233.377</ele>
        <time>2021-10-04T14:06:34Z</time>
      </trkpt>
      <trkpt lat="43.56949" lon="3.34876">
        <ele>236.442</ele>
        <time>2021-10-04T14:07:14Z</time>
      </trkpt>
      <trkpt lat="43.5694" lon="3.34862">
        <ele>240.871</ele>
        <time>2021-10-04T14:07:54Z</time>
      </trkpt>
      <trkpt lat="43.56935" lon="3.34844">
        <ele>241.843</ele>
        <time>2021-10-04T14:08:34Z</time>
      </trkpt>
      <trkpt lat="43.56935" lon="3.34825">
        <ele>239.297</ele>
        <time>2021-10-04T14:09:14Z</time>
      </trkpt>
      <trkpt lat="43.56934" lon="3.34811">
        <ele>239.237</ele>
        <time>2021-10-04T14:09:54Z</time>
      </trkpt>
      <trkpt lat="43.56928" lon="3.34807">
        <ele>244.749</ele>
        <time>2021-10-04T14:10:34Z</time>
      </trkpt>
      <trkpt lat="43.5692" lon="3.34803">
        <ele>251.113</ele>
        <time>2021-10-04T14:11:14Z</time>
      </trkpt>
      <trkpt lat="43.5692" lon="3.34803">
        <ele>251.208</ele>
        <time>2021-10-04T14:11:54Z</time>
      </trkpt>
      <trkpt lat="43.56912" lon="3.34793">
        <ele>256.619</ele>
        <time>2021-10-04T14:12:34Z</time>
      </trkpt>
      <trkpt lat="43.56907" lon="3.34785">
        <ele>260.418</ele>
        <time>2021-10-04T14:13:14Z</time>
      </trkpt>
      <trkpt lat="43.56902" lon="3.34785">
        <ele>263.313</ele>
        <time>2021-10-04T14:13:54Z</time>
      </trkpt>
      <trkpt lat="43.56896" lon="3.34794">
        <ele>266.592</ele>
        <time>2021-10-04T14:14:34Z</time>
      </trkpt>
      <trkpt lat="43.56892" lon="3.34826">
        <ele>266.937</ele>
        <time>2021-10-04T14:15:14Z</time>
      </trkpt>
      <trkpt lat="43.56889" lon="3.34845">
        <ele>268.356</ele>
        <time>2021-10-04T14:15:54Z</time>
      </trkpt>
      <trkpt lat="43.56883" lon="3.34864">
        <ele>270.198</ele>
        <time>2021-10-04T14:16:34Z</time>
      </trkpt>
      <trkpt lat="43.56877" lon="3.34852">
        <ele>271.322</ele>
        <time>2021-10-04T14:17:14Z</time>
      </trkpt>
      <trkpt lat="43.5687" lon="3.34858">
        <ele>272.676</ele>
        <time>2021-10-04T14:17:54Z</time>
      </trkpt>
      <trkpt lat="43.56869" lon="3.34887">
        <ele>268.29</ele>
        <time>2021-10-04T14:18:34Z</time>
      </trkpt>
      <trkpt lat="43.56869" lon="3.34907">
        <ele>261.619</ele>
        <time>2021-10-04T14:19:14Z</time>
      </trkpt>
      <trkpt lat="43.56854" lon="3.34906">
        <ele>255.308</ele>
        <time>2021-10-04T14:19:54Z</time>
      </trkpt>
      <trkpt lat="43.56846" lon="3.34912">
        <ele>248.613</ele>
        <time>2021-10-04T14:20:34Z</time>
      </trkpt>
      <trkpt lat="43.56825" lon="3.34921">
        <ele>236.152</ele>
        <time>2021-10-04T14:21:14Z</time>
      </trkpt>
      <trkpt lat="43.56802" lon="3.34923">
        <ele>227.817</ele>
        <time>2021-10-04T14:21:54Z</time>
      </trkpt>
      <trkpt lat="43.56787" lon="3.3493">
        <ele>218.916</ele>
        <time>2021-10-04T14:22:34Z</time>
      </trkpt>
      <trkpt lat="43.56775" lon="3.34918">
        <ele>215.851</ele>
        <time>2021-10-04T14:23:14Z</time>
      </trkpt>
      <trkpt lat="43.5676" lon="3.34886">
        <ele>214.45</ele>
        <time>2021-10-04T14:23:54Z</time>
      </trkpt>
      <trkpt lat="43.56749" lon="3.34858">
        <ele>213.052</ele>
        <time>2021-10-04T14:24:34Z</time>
      </trkpt>
      <trkpt lat="43.56738" lon="3.34824">
        <ele>213.726</ele>
        <time>2021-10-04T14:25:14Z</time>
      </trkpt>
      <trkpt lat="43.56732" lon="3.3482">
        <ele>211.836</ele>
        <time>2021-10-04T14:25:54Z</time>
      </trkpt>
      <trkpt lat="43.56717" lon="3.34785">
        <ele>210.017</ele>
        <time>2021-10-04T14:26:34Z</time>
      </trkpt>
      <trkpt lat="43.56721" lon="3.34769">
        <ele>213.018</ele>
        <time>2021-10-04T14:27:14Z</time>
      </trkpt>
      <trkpt lat="43.56724" lon="3.34757">
        <ele>215.308</ele>
        <time>2021-10-04T14:27:54Z</time>
      </trkpt>
      <trkpt lat="43.56728" lon="3.34741">
        <ele>218.629</ele>
        <time>2021-10-04T14:28:34Z</time>
      </trkpt>
      <trkpt lat="43.56723" lon="3.34733">
        <ele>215.988</ele>
        <time>2021-10-04T14:29:14Z</time>
      </trkpt>
      <trkpt lat="43.56723" lon="3.34725">
        <ele>216.273</ele>
        <time>2021-10-04T14:29:54Z</time>
      </trkpt>
      <trkpt lat="43.56723" lon="3.34711">
        <ele>215.982</ele>
        <time>2021-10-04T14:30:34Z</time>
      </trkpt>
      <trkpt lat="43.56723" lon="3.34692">
        <ele>215.547</ele>
        <time>2021-10-04T14:31:14Z</time>
      </trkpt>
      <trkpt lat="43.56736" lon="3.34683">
        <ele>222.116</ele>
        <time>2021-10-04T14:31:54Z</time>
      </trkpt>
      <trkpt lat="43.56741" lon="3.34675">
        <ele>223.288</ele>
        <time>2021-10-04T14:32:34Z</time>
      </trkpt>
      <trkpt lat="43.56751" lon="3.34662">
        <ele>224.892</ele>
        <time>2021-10-04T14:33:14Z</time>
      </trkpt>
      <trkpt lat="43.56764" lon="3.34641">
        <ele>225.385</ele>
        <time>2021-10-04T14:33:54Z</time>
      </trkpt>
      <trkpt lat="43.56777" lon="3.34624">
        <ele>225.689</ele>
        <time>2021-10-04T14:34:34Z</time>
      </trkpt>
      <trkpt lat="43.56798" lon="3.34607">
        <ele>224.917</ele>
        <time>2021-10-04T14:35:14Z</time>
      </trkpt>
      <trkpt lat="43.56827" lon="3.34592">
        <ele>227.208</ele>
        <time>2021-10-04T14:35:54Z</time>
      </trkpt>
      <trkpt lat="43.56856" lon="3.34587">
        <ele>231.414</ele>
        <time>2021-10-04T14:36:34Z</time>
      </trkpt>
      <trkpt lat="43.56876" lon="3.34582">
        <ele>231.153</ele>
        <time>2021-10-04T14:37:14Z</time>
      </trkpt>
      <trkpt lat="43.56899" lon="3.34576">
        <ele>228.518</ele>
        <time>2021-10-04T14:37:54Z</time>
      </trkpt>
      <trkpt lat="43.56908" lon="3.34571">
        <ele>226.417</ele>
        <time>2021-10-04T14:38:34Z</time>
      </trkpt>
      <trkpt lat="43.56914" lon="3.34566">
        <ele>225.082</ele>
        <time>2021-10-04T14:39:14Z</time>
      </trkpt>
      <trkpt lat="43.56911" lon="3.34552">
        <ele>222.191</ele>
        <time>2021-10-04T14:39:54Z</time>
      </trkpt>
      <trkpt lat="43.56913" lon="3.34541">
        <ele>220.293</ele>
        <time>2021-10-04T14:40:34Z</time>
      </trkpt>
      <trkpt lat="43.5692" lon="3.3452">
        <ele>217.547</ele>
        <time>2021-10-04T14:41:14Z</time>
      </trkpt>
      <trkpt lat="43.56929" lon="3.345">
        <ele>217.515</ele>
        <time>2021-10-04T14:41:54Z</time>
      </trkpt>
      <trkpt lat="43.56936" lon="3.3448">
        <ele>218.065</ele>
        <time>2021-10-04T14:42:34Z</time>
      </trkpt>
      <trkpt lat="43.56933" lon="3.34467">
        <ele>215.911</ele>
        <time>2021-10-04T14:43:14Z</time>
      </trkpt>
      <trkpt lat="43.56939" lon="3.34446">
        <ele>215.708</ele>
        <time>2021-10-04T14:43:54Z</time>
      </trkpt>
      <trkpt lat="43.56952" lon="3.34427">
        <ele>214.977</ele>
        <time>2021-10-04T14:44:34Z</time>
      </trkpt>
      <trkpt lat="43.56972" lon="3.34419">
        <ele>214.536</ele>
        <time>2021-10-04T14:45:14Z</time>
      </trkpt>
      <trkpt lat="43.56984" lon="3.34403">
        <ele>214.211</ele>
        <time>2021-10-04T14:45:54Z</time>
      </trkpt>
      <trkpt lat="43.56992" lon="3.34373">
        <ele>211.56</ele>
        <time>2021-10-04T14:46:34Z</time>
      </trkpt>
      <trkpt lat="43.56994" lon="3.34353">
        <ele>211.215</ele>
        <time>2021-10-04T14:47:14Z</time>
      </trkpt>
      <trkpt lat="43.56984" lon="3.34331">
        <ele>209.124</ele>
        <time>2021-10-04T14:47:54Z</time>
      </trkpt>
      <trkpt lat="43.56974" lon="3.34307">
        <ele>206.836</ele>
        <time>2021-10-04T14:48:34Z</time>
      </trkpt>
      <trkpt lat="43.56971" lon="3.3429">
        <ele>206.89</ele>
        <time>2021-10-04T14:49:14Z</time>
      </trkpt>
      <trkpt lat="43.56983" lon="3.34263">
        <ele>213.147</ele>
        <time>2021-10-04T14:49:54Z</time>
      </trkpt>
      <trkpt lat="43.56984" lon="3.34228">
        <ele>213.329</ele>
        <time>2021-10-04T14:50:34Z</time>
      </trkpt>
      <trkpt lat="43.56993" lon="3.34193">
        <ele>216.821</ele>
        <time>2021-10-04T14:51:14Z</time>
      </trkpt>
      <trkpt lat="43.56994" lon="3.34164">
        <ele>216.508</ele>
        <time>2021-10-04T14:51:54Z</time>
      </trkpt>
      <trkpt lat="43.56996" lon="3.34126">
        <ele>216.24</ele>
        <time>2021-10-04T14:52:34Z</time>
      </trkpt>
      <trkpt lat="43.57002" lon="3.34093">
        <ele>218.179</ele>
        <time>2021-10-04T14:53:14Z</time>
      </trkpt>
      <trkpt lat="43.57004" lon="3.34059">
        <ele>215.874</ele>
        <time>2021-10-04T14:53:54Z</time>
      </trkpt>
      <trkpt lat="43.57012" lon="3.34038">
        <ele>215.753</ele>
        <time>2021-10-04T14:54:34Z</time>
      </trkpt>
      <trkpt lat="43.57029" lon="3.33999">
        <ele>213.188</ele>
        <time>2021-10-04T14:55:14Z</time>
      </trkpt>
      <trkpt lat="43.57035" lon="3.33991">
        <ele>213.137</ele>
        <time>2021-10-04T14:55:54Z</time>
      </trkpt>
      <trkpt lat="43.57059" lon="3.33969">
        <ele>214.539</ele>
        <time>2021-10-04T14:56:34Z</time>
      </trkpt>
      <trkpt lat="43.57084" lon="3.33949">
        <ele>210.933</ele>
        <time>2021-10-04T14:57:14Z</time>
      </trkpt>
      <trkpt lat="43.57108" lon="3.33938">
        <ele>209.765</ele>
        <time>2021-10-04T14:57:54Z</time>
      </trkpt>
      <trkpt lat="43.5713" lon="3.33938">
        <ele>209.168</ele>
        <time>2021-10-04T14:58:34Z</time>
      </trkpt>
      <trkpt lat="43.57151" lon="3.33945">
        <ele>209.214</ele>
        <time>2021-10-04T14:59:14Z</time>
      </trkpt>
      <trkpt lat="43.5716" lon="3.33945">
        <ele>208.508</ele>
        <time>2021-10-04T14:59:54Z</time>
      </trkpt>
      <trkpt lat="43.57175" lon="3.33932">
        <ele>206.482</ele>
        <time>2021-10-04T15:00:34Z</time>
      </trkpt>
      <trkpt lat="43.57199" lon="3.33916">
        <ele>204.821</ele>
        <time>2021-10-04T15:01:14Z</time>
      </trkpt>
      <trkpt lat="43.5722" lon="3.33909">
        <ele>203.556</ele>
        <time>2021-10-04T15:01:54Z</time>
      </trkpt>
      <trkpt lat="43.57227" lon="3.33904">
        <ele>203.915</ele>
        <time>2021-10-04T15:02:34Z</time>
      </trkpt>
      <trkpt lat="43.5724" lon="3.33895">
        <ele>205.93</ele>
        <time>2021-10-04T15:03:14Z</time>
      </trkpt>
      <trkpt lat="43.57256" lon="3.33897">
        <ele>207.869</ele>
        <time>2021-10-04T15:03:54Z</time>
      </trkpt>
      <trkpt lat="43.57266" lon="3.33879">
        <ele>209.731</ele>
        <time>2021-10-04T15:04:34Z</time>
      </trkpt>
      <trkpt lat="43.57266" lon="3.33857">
        <ele>212.345</ele>
        <time>2021-10-04T15:05:14Z</time>
      </trkpt>
      <trkpt lat="43.57251" lon="3.33811">
        <ele>216.371</ele>
        <time>2021-10-04T15:05:54Z</time>
      </trkpt>
      <trkpt lat="43.57221" lon="3.33752">
        <ele>222.141</ele>
        <time>2021-10-04T15:06:34Z</time>
      </trkpt>
      <trkpt lat="43.57203" lon="3.33702">
        <ele>225.015</ele>
        <time>2021-10-04T15:07:14Z</time>
      </trkpt>
      <trkpt lat="43.57192" lon="3.33654">
        <ele>225.708</ele>
        <time>2021-10-04T15:07:54Z</time>
      </trkpt>
      <trkpt lat="43.57183" lon="3.33616">
        <ele>226.453</ele>
        <time>2021-10-04T15:08:34Z</time>
      </trkpt>
      <trkpt lat="43.57183" lon="3.33585">
        <ele>228.162</ele>
        <time>2021-10-04T15:09:14Z</time>
      </trkpt>
      <trkpt lat="43.57204" lon="3.33535">
        <ele>231.587</ele>
        <time>2021-10-04T15:09:54Z</time>
      </trkpt>
      <trkpt lat="43.57222" lon="3.33508">
        <ele>234.826</ele>
        <time>2021-10-04T15:10:34Z</time>
      </trkpt>
      <trkpt lat="43.57229" lon="3.33494">
        <ele>237.041</ele>
        <time>2021-10-04T15:11:14Z</time>
      </trkpt>
      <trkpt lat="43.57231" lon="3.33497">
        <ele>237.74</ele>
        <time>2021-10-04T15:11:54Z</time>
      </trkpt>
      <trkpt lat="43.57229" lon="3.33471">
        <ele>237.282</ele>
        <time>2021-10-04T15:12:34Z</time>
      </trkpt>
      <trkpt lat="43.57232" lon="3.3343">
        <ele>240.526</ele>
        <time>2021-10-04T15:13:14Z</time>
      </trkpt>
      <trkpt lat="43.57244" lon="3.33371">
        <ele>243.587</ele>
        <time>2021-10-04T15:13:54Z</time>
      </trkpt>
      <trkpt lat="43.57275" lon="3.33328">
        <ele>250.142</ele>
        <time>2021-10-04T15:14:34Z</time>
      </trkpt>
      <trkpt lat="43.57291" lon="3.33289">
        <ele>254.726</ele>
        <time>2021-10-04T15:15:14Z</time>
      </trkpt>
      <trkpt lat="43.57311" lon="3.33212">
        <ele>266.808</ele>
        <time>2021-10-04T15:15:54Z</time>
      </trkpt>
      <trkpt lat="43.5734" lon="3.3317">
        <ele>277.784</ele>
        <time>2021-10-04T15:16:34Z</time>
      </trkpt>
      <trkpt lat="43.57369" lon="3.33119">
        <ele>287.323</ele>
        <time>2021-10-04T15:17:14Z</time>
      </trkpt>
      <trkpt lat="43.57422" lon="3.32968">
        <ele>310.778</ele>
        <time>2021-10-04T15:17:54Z</time>
      </trkpt>
      <trkpt lat="43.57442" lon="3.32923">
        <ele>317.417</ele>
        <time>2021-10-04T15:18:34Z</time>
      </trkpt>
      <trkpt lat="43.57521" lon="3.32838">
        <ele>329.762</ele>
        <time>2021-10-04T15:19:14Z</time>
      </trkpt>
      <trkpt lat="43.57567" lon="3.32782">
        <ele>336.891</ele>
        <time>2021-10-04T15:19:54Z</time>
      </trkpt>
      <trkpt lat="43.5759" lon="3.32747">
        <ele>340.763</ele>
        <time>2021-10-04T15:20:34Z</time>
      </trkpt>
      <trkpt lat="43.57614" lon="3.3273">
        <ele>342.767</ele>
        <time>2021-10-04T15:21:14Z</time>
      </trkpt>
      <trkpt lat="43.57651" lon="3.32716">
        <ele>347.636</ele>
        <time>2021-10-04T15:21:54Z</time>
      </trkpt>
      <trkpt lat="43.57674" lon="3.32699">
        <ele>349.517</ele>
        <time>2021-10-04T15:22:34Z</time>
      </trkpt>
      <trkpt lat="43.57708" lon="3.32685">
        <ele>352.518</ele>
        <time>2021-10-04T15:23:14Z</time>
      </trkpt>
      <trkpt lat="43.57747" lon="3.32658">
        <ele>357.208</ele>
        <time>2021-10-04T15:23:54Z</time>
      </trkpt>
      <trkpt lat="43.57763" lon="3.32627">
        <ele>358.849</ele>
        <time>2021-10-04T15:24:34Z</time>
      </trkpt>
      <trkpt lat="43.57776" lon="3.32598">
        <ele>359.148</ele>
        <time>2021-10-04T15:25:14Z</time>
      </trkpt>
      <trkpt lat="43.57798" lon="3.32561">
        <ele>357.343</ele>
        <time>2021-10-04T15:25:54Z</time>
      </trkpt>
      <trkpt lat="43.57823" lon="3.32536">
        <ele>356.392</ele>
        <time>2021-10-04T15:26:34Z</time>
      </trkpt>
      <trkpt lat="43.57865" lon="3.32517">
        <ele>355.067</ele>
        <time>2021-10-04T15:27:14Z</time>
      </trkpt>
      <trkpt lat="43.579" lon="3.32508">
        <ele>353.346</ele>
        <time>2021-10-04T15:27:54Z</time>
      </trkpt>
      <trkpt lat="43.57938" lon="3.3248">
        <ele>350.158</ele>
        <time>2021-10-04T15:28:34Z</time>
      </trkpt>
      <trkpt lat="43.57956" lon="3.32459">
        <ele>350.642</ele>
        <time>2021-10-04T15:29:14Z</time>
      </trkpt>
      <trkpt lat="43.57968" lon="3.32439">
        <ele>351.811</ele>
        <time>2021-10-04T15:29:54Z</time>
      </trkpt>
      <trkpt lat="43.57973" lon="3.32397">
        <ele>352.621</ele>
        <time>2021-10-04T15:30:34Z</time>
      </trkpt>
      <trkpt lat="43.57981" lon="3.32362">
        <ele>353.003</ele>
        <time>2021-10-04T15:31:14Z</time>
      </trkpt>
      <trkpt lat="43.5798" lon="3.32319">
        <ele>348.208</ele>
        <time>2021-10-04T15:31:54Z</time>
      </trkpt>
      <trkpt lat="43.57992" lon="3.3225">
        <ele>341.887</ele>
        <time>2021-10-04T15:32:34Z</time>
      </trkpt>
      <trkpt lat="43.57996" lon="3.32225">
        <ele>342.426</ele>
        <time>2021-10-04T15:33:14Z</time>
      </trkpt>
      <trkpt lat="43.57984" lon="3.32201">
        <ele>337.141</ele>
        <time>2021-10-04T15:33:54Z</time>
      </trkpt>
      <trkpt lat="43.57962" lon="3.32183">
        <ele>329.24</ele>
        <time>2021-10-04T15:34:34Z</time>
      </trkpt>
      <trkpt lat="43.57938" lon="3.3216">
        <ele>320.075</ele>
        <time>2021-10-04T15:35:14Z</time>
      </trkpt>
      <trkpt lat="43.57919" lon="3.32154">
        <ele>312.724</ele>
        <time>2021-10-04T15:35:54Z</time>
      </trkpt>
      <trkpt lat="43.57903" lon="3.32143">
        <ele>306.616</ele>
        <time>2021-10-04T15:36:34Z</time>
      </trkpt>
      <trkpt lat="43.57897" lon="3.32165">
        <ele>303.39</ele>
        <time>2021-10-04T15:37:14Z</time>
      </trkpt>
      <trkpt lat="43.57903" lon="3.32189">
        <ele>302.667</ele>
        <time>2021-10-04T15:37:54Z</time>
      </trkpt>
      <trkpt lat="43.57899" lon="3.32204">
        <ele>299.681</ele>
        <time>2021-10-04T15:38:34Z</time>
      </trkpt>
      <trkpt lat="43.57862" lon="3.32224">
        <ele>288.419</ele>
        <time>2021-10-04T15:39:14Z</time>
      </trkpt>
      <trkpt lat="43.57851" lon="3.32237">
        <ele>287.308</ele>
        <time>2021-10-04T15:39:54Z</time>
      </trkpt>
      <trkpt lat="43.57843" lon="3.32256">
        <ele>287.422</ele>
        <time>2021-10-04T15:40:34Z</time>
      </trkpt>
      <trkpt lat="43.57823" lon="3.32251">
        <ele>281.731</ele>
        <time>2021-10-04T15:41:14Z</time>
      </trkpt>
      <trkpt lat="43.57804" lon="3.3224">
        <ele>276.386</ele>
        <time>2021-10-04T15:41:54Z</time>
      </trkpt>
      <trkpt lat="43.57778" lon="3.32234">
        <ele>268.375</ele>
        <time>2021-10-04T15:42:34Z</time>
      </trkpt>
      <trkpt lat="43.57738" lon="3.32236">
        <ele>261.26</ele>
        <time>2021-10-04T15:43:14Z</time>
      </trkpt>
      <trkpt lat="43.57726" lon="3.32245">
        <ele>261.249</ele>
        <time>2021-10-04T15:43:54Z</time>
      </trkpt>
      <trkpt lat="43.57715" lon="3.32242">
        <ele>258.281</ele>
        <time>2021-10-04T15:44:34Z</time>
      </trkpt>
      <trkpt lat="43.57708" lon="3.32226">
        <ele>252.975</ele>
        <time>2021-10-04T15:45:14Z</time>
      </trkpt>
      <trkpt lat="43.577" lon="3.32205">
        <ele>250.867</ele>
        <time>2021-10-04T15:45:54Z</time>
      </trkpt>
      <trkpt lat="43.5769" lon="3.32201">
        <ele>251.781</ele>
        <time>2021-10-04T15:46:34Z</time>
      </trkpt>
      <trkpt lat="43.57686" lon="3.32192">
        <ele>254.119</ele>
        <time>2021-10-04T15:47:14Z</time>
      </trkpt>
      <trkpt lat="43.57679" lon="3.3219">
        <ele>256.908</ele>
        <time>2021-10-04T15:47:54Z</time>
      </trkpt>
      <trkpt lat="43.57657" lon="3.32195">
        <ele>261.472</ele>
        <time>2021-10-04T15:48:34Z</time>
      </trkpt>
      <trkpt lat="43.57631" lon="3.32192">
        <ele>268.971</ele>
        <time>2021-10-04T15:49:14Z</time>
      </trkpt>
      <trkpt lat="43.57617" lon="3.32189">
        <ele>273.786</ele>
        <time>2021-10-04T15:49:54Z</time>
      </trkpt>
      <trkpt lat="43.57598" lon="3.32188">
        <ele>277.415</ele>
        <time>2021-10-04T15:50:34Z</time>
      </trkpt>
      <trkpt lat="43.57583" lon="3.3218">
        <ele>280.55</ele>
        <time>2021-10-04T15:51:14Z</time>
      </trkpt>
      <trkpt lat="43.57577" lon="3.32161">
        <ele>282.979</ele>
        <time>2021-10-04T15:51:54Z</time>
      </trkpt>
      <trkpt lat="43.5757" lon="3.32147">
        <ele>283.561</ele>
        <time>2021-10-04T15:52:34Z</time>
      </trkpt>
      <trkpt lat="43.57555" lon="3.32165">
        <ele>279.495</ele>
        <time>2021-10-04T15:53:14Z</time>
      </trkpt>
      <trkpt lat="43.57538" lon="3.32185">
        <ele>280.825</ele>
        <time>2021-10-04T15:53:54Z</time>
      </trkpt>
      <trkpt lat="43.57514" lon="3.32213">
        <ele>281.926</ele>
        <time>2021-10-04T15:54:34Z</time>
      </trkpt>
      <trkpt lat="43.57521" lon="3.32177">
        <ele>286.508</ele>
        <time>2021-10-04T15:55:14Z</time>
      </trkpt>
      <trkpt lat="43.57516" lon="3.32155">
        <ele>291.208</ele>
        <time>2021-10-04T15:55:54Z</time>
      </trkpt>
      <trkpt lat="43.57524" lon="3.32124">
        <ele>291.678</ele>
        <time>2021-10-04T15:56:34Z</time>
      </trkpt>
      <trkpt lat="43.57524" lon="3.32101">
        <ele>293.727</ele>
        <time>2021-10-04T15:57:14Z</time>
      </trkpt>
      <trkpt lat="43.5752" lon="3.32086">
        <ele>296.432</ele>
        <time>2021-10-04T15:57:54Z</time>
      </trkpt>
      <trkpt lat="43.57499" lon="3.32045">
        <ele>303.781</ele>
        <time>2021-10-04T15:58:34Z</time>
      </trkpt>
      <trkpt lat="43.57482" lon="3.31994">
        <ele>311.556</ele>
        <time>2021-10-04T15:59:14Z</time>
      </trkpt>
      <trkpt lat="43.57468" lon="3.3194">
        <ele>319.935</ele>
        <time>2021-10-04T15:59:54Z</time>
      </trkpt>
      <trkpt lat="43.57452" lon="3.31892">
        <ele>327.667</ele>
        <time>2021-10-04T16:00:34Z</time>
      </trkpt>
      <trkpt lat="43.57434" lon="3.31857">
        <ele>335.231</ele>
        <time>2021-10-04T16:01:14Z</time>
      </trkpt>
      <trkpt lat="43.57423" lon="3.31831">
        <ele>338.875</ele>
        <time>2021-10-04T16:01:54Z</time>
      </trkpt>
      <trkpt lat="43.5739" lon="3.31764">
        <ele>345.528</ele>
        <time>2021-10-04T16:02:34Z</time>
      </trkpt>
      <trkpt lat="43.57382" lon="3.31754">
        <ele>345.62</ele>
        <time>2021-10-04T16:03:14Z</time>
      </trkpt>
      <trkpt lat="43.57381" lon="3.31671">
        <ele>350.408</ele>
        <time>2021-10-04T16:03:54Z</time>
      </trkpt>
      <trkpt lat="43.57363" lon="3.31617">
        <ele>345.993</ele>
        <time>2021-10-04T16:04:34Z</time>
      </trkpt>
      <trkpt lat="43.57374" lon="3.31567">
        <ele>344.352</ele>
        <time>2021-10-04T16:05:14Z</time>
      </trkpt>
      <trkpt lat="43.57393" lon="3.31496">
        <ele>342.527</ele>
        <time>2021-10-04T16:05:54Z</time>
      </trkpt>
      <trkpt lat="43.57391" lon="3.31455">
        <ele>339.766</ele>
        <time>2021-10-04T16:06:34Z</time>
      </trkpt>
      <trkpt lat="43.57365" lon="3.31398">
        <ele>333.221</ele>
        <time>2021-10-04T16:07:14Z</time>
      </trkpt>
      <trkpt lat="43.57332" lon="3.31395">
        <ele>329.06</ele>
        <time>2021-10-04T16:07:54Z</time>
      </trkpt>
      <trkpt lat="43.57276" lon="3.31398">
        <ele>324.692</ele>
        <time>2021-10-04T16:08:34Z</time>
      </trkpt>
      <trkpt lat="43.57214" lon="3.31399">
        <ele>322.546</ele>
        <time>2021-10-04T16:09:14Z</time>
      </trkpt>
      <trkpt lat="43.57157" lon="3.31381">
        <ele>319.837</ele>
        <time>2021-10-04T16:09:54Z</time>
      </trkpt>
      <trkpt lat="43.57117" lon="3.31349">
        <ele>314.749</ele>
        <time>2021-10-04T16:10:34Z</time>
      </trkpt>
      <trkpt lat="43.57075" lon="3.31286">
        <ele>305.513</ele>
        <time>2021-10-04T16:11:14Z</time>
      </trkpt>
      <trkpt lat="43.57061" lon="3.31277">
        <ele>301.908</ele>
        <time>2021-10-04T16:11:54Z</time>
      </trkpt>
      <trkpt lat="43.57018" lon="3.31302">
        <ele>299.919</ele>
        <time>2021-10-04T16:12:34Z</time>
      </trkpt>
      <trkpt lat="43.56962" lon="3.31318">
        <ele>295.118</ele>
        <time>2021-10-04T16:13:14Z</time>
      </trkpt>
      <trkpt lat="43.56909" lon="3.31376">
        <ele>298.573</ele>
        <time>2021-10-04T16:13:54Z</time>
      </trkpt>
      <trkpt lat="43.56832" lon="3.31385">
        <ele>301.572</ele>
        <time>2021-10-04T16:14:34Z</time>
      </trkpt>
      <trkpt lat="43.56793" lon="3.31388">
        <ele>299.097</ele>
        <time>2021-10-04T16:15:14Z</time>
      </trkpt>
      <trkpt lat="43.5676" lon="3.31414">
        <ele>295.936</ele>
        <time>2021-10-04T16:15:54Z</time>
      </trkpt>
      <trkpt lat="43.56734" lon="3.31398">
        <ele>293.158</ele>
        <time>2021-10-04T16:16:34Z</time>
      </trkpt>
      <trkpt lat="43.56663" lon="3.31402">
        <ele>287.222</ele>
        <time>2021-10-04T16:17:14Z</time>
      </trkpt>
      <trkpt lat="43.56629" lon="3.31417">
        <ele>281.667</ele>
        <time>2021-10-04T16:17:54Z</time>
      </trkpt>
      <trkpt lat="43.56598" lon="3.31409">
        <ele>280.981</ele>
        <time>2021-10-04T16:18:34Z</time>
      </trkpt>
      <trkpt lat="43.56516" lon="3.31391">
        <ele>278.019</ele>
        <time>2021-10-04T16:19:14Z</time>
      </trkpt>
      <trkpt lat="43.56437" lon="3.31365">
        <ele>276.508</ele>
        <time>2021-10-04T16:19:54Z</time>
      </trkpt>
      <trkpt lat="43.56395" lon="3.31354">
        <ele>279.762</ele>
        <time>2021-10-04T16:20:34Z</time>
      </trkpt>
      <trkpt lat="43.56341" lon="3.31313">
        <ele>287.011</ele>
        <time>2021-10-04T16:21:14Z</time>
      </trkpt>
      <trkpt lat="43.56294" lon="3.31267">
        <ele>288.426</ele>
        <time>2021-10-04T16:21:54Z</time>
      </trkpt>
      <trkpt lat="43.56222" lon="3.31175">
        <ele>280.095</ele>
        <time>2021-10-04T16:22:34Z</time>
      </trkpt>
      <trkpt lat="43.56167" lon="3.31085">
        <ele>274.73</ele>
        <time>2021-10-04T16:23:14Z</time>
      </trkpt>
      <trkpt lat="43.5614" lon="3.31035">
        <ele>274.089</ele>
        <time>2021-10-04T16:23:54Z</time>
      </trkpt>
      <trkpt lat="43.56102" lon="3.31021">
        <ele>273.151</ele>
        <time>2021-10-04T16:24:34Z</time>
      </trkpt>
      <trkpt lat="43.56058" lon="3.3103">
        <ele>277.195</ele>
        <time>2021-10-04T16:25:14Z</time>
      </trkpt>
      <trkpt lat="43.55991" lon="3.31041">
        <ele>276.355</ele>
        <time>2021-10-04T16:25:54Z</time>
      </trkpt>
      <trkpt lat="43.55998" lon="3.31077">
        <ele>271.707</ele>
        <time>2021-10-04T16:26:34Z</time>
      </trkpt>
      <trkpt lat="43.56017" lon="3.31135">
        <ele>259.417</ele>
        <time>2021-10-04T16:27:14Z</time>
      </trkpt>
      <trkpt lat="43.56028" lon="3.31257">
        <ele>259.008</ele>
        <time>2021-10-04T16:27:54Z</time>
      </trkpt>
      <trkpt lat="43.56037" lon="3.31371">
        <ele>252.161</ele>
        <time>2021-10-04T16:28:34Z</time>
      </trkpt>
      <trkpt lat="43.56031" lon="3.31492">
        <ele>244.83</ele>
        <time>2021-10-04T16:29:14Z</time>
      </trkpt>
      <trkpt lat="43.56039" lon="3.31617">
        <ele>230.875</ele>
        <time>2021-10-04T16:29:54Z</time>
      </trkpt>
      <trkpt lat="43.56044" lon="3.31718">
        <ele>230.034</ele>
        <time>2021-10-04T16:30:34Z</time>
      </trkpt>
      <trkpt lat="43.5615" lon="3.31788">
        <ele>210.999</ele>
        <time>2021-10-04T16:31:14Z</time>
      </trkpt>
      <trkpt lat="43.56185" lon="3.31947">
        <ele>202.298</ele>
        <time>2021-10-04T16:31:54Z</time>
      </trkpt>
      <trkpt lat="43.56219" lon="3.32039">
        <ele>196.02</ele>
        <time>2021-10-04T16:32:34Z</time>
      </trkpt>
      <trkpt lat="43.5624" lon="3.3206">
        <ele>191.964</ele>
        <time>2021-10-04T16:33:14Z</time>
      </trkpt>
      <trkpt lat="43.56281" lon="3.32108">
        <ele>182.774</ele>
        <time>2021-10-04T16:33:54Z</time>
      </trkpt>
      <trkpt lat="43.56285" lon="3.32191">
        <ele>181.656</ele>
        <time>2021-10-04T16:34:34Z</time>
      </trkpt>
      <trkpt lat="43.56317" lon="3.32236">
        <ele>181.421</ele>
        <time>2021-10-04T16:35:14Z</time>
      </trkpt>
      <trkpt lat="43.56308" lon="3.3228">
        <ele>178.008</ele>
        <time>2021-10-04T16:35:54Z</time>
      </trkpt>
      <trkpt lat="43.56282" lon="3.32344">
        <ele>181.393</ele>
        <time>2021-10-04T16:36:34Z</time>
      </trkpt>
      <trkpt lat="43.56257" lon="3.32403">
        <ele>185.012</ele>
        <time>2021-10-04T16:37:14Z</time>
      </trkpt>
      <trkpt lat="43.56247" lon="3.32473">
        <ele>185.137</ele>
        <time>2021-10-04T16:37:54Z</time>
      </trkpt>
      <trkpt lat="43.56225" lon="3.32522">
        <ele>186.016</ele>
        <time>2021-10-04T16:38:34Z</time>
      </trkpt>
      <trkpt lat="43.56209" lon="3.32532">
        <ele>190.441</ele>
        <time>2021-10-04T16:39:14Z</time>
      </trkpt>
      <trkpt lat="43.56222" lon="3.32469">
        <ele>194.17</ele>
        <time>2021-10-04T16:39:54Z</time>
      </trkpt>
      <trkpt lat="43.56218" lon="3.32366">
        <ele>197.662</ele>
        <time>2021-10-04T16:40:34Z</time>
      </trkpt>
      <trkpt lat="43.56184" lon="3.3248">
        <ele>205.876</ele>
        <time>2021-10-04T16:41:14Z</time>
      </trkpt>
      <trkpt lat="43.56141" lon="3.32552">
        <ele>211.732</ele>
        <time>2021-10-04T16:41:54Z</time>
      </trkpt>
      <trkpt lat="43.56101" lon="3.326">
        <ele>214.992</ele>
        <time>2021-10-04T16:42:34Z</time>
      </trkpt>
      <trkpt lat="43.56077" lon="3.32609">
        <ele>217.311</ele>
        <time>2021-10-04T16:43:14Z</time>
      </trkpt>
      <trkpt lat="43.56047" lon="3.32625">
        <ele>222.808</ele>
        <time>2021-10-04T16:43:54Z</time>
      </trkpt>
      <trkpt lat="43.56035" lon="3.3265">
        <ele>224.279</ele>
        <time>2021-10-04T16:44:34Z</time>
      </trkpt>
      <trkpt lat="43.56022" lon="3.32722">
        <ele>228.598</ele>
        <time>2021-10-04T16:45:14Z</time>
      </trkpt>
      <trkpt lat="43.56044" lon="3.32771">
        <ele>226.183</ele>
        <time>2021-10-04T16:45:54Z</time>
      </trkpt>
      <trkpt lat="43.5604" lon="3.32825">
        <ele>230.142</ele>
        <time>2021-10-04T16:46:34Z</time>
      </trkpt>
      <trkpt lat="43.56018" lon="3.32877">
        <ele>234.887</ele>
        <time>2021-10-04T16:47:14Z</time>
      </trkpt>
      <trkpt lat="43.56002" lon="3.32904">
        <ele>237.326</ele>
        <time>2021-10-04T16:47:54Z</time>
      </trkpt>
      <trkpt lat="43.55974" lon="3.3291">
        <ele>239.738</ele>
        <time>2021-10-04T16:48:34Z</time>
      </trkpt>
      <trkpt lat="43.55943" lon="3.32947">
        <ele>240.212</ele>
        <time>2021-10-04T16:49:14Z</time>
      </trkpt>
      <trkpt lat="43.55929" lon="3.32977">
        <ele>240.458</ele>
        <time>2021-10-04T16:49:54Z</time>
      </trkpt>
      <trkpt lat="43.55917" lon="3.32988">
        <ele>240.852</ele>
        <time>2021-10-04T16:50:34Z</time>
      </trkpt>
      <trkpt lat="43.55899" lon="3.33038">
        <ele>240.717</ele>
        <time>2021-10-04T16:51:14Z</time>
      </trkpt>
      <trkpt lat="43.55873" lon="3.33073">
        <ele>241.508</ele>
        <time>2021-10-04T16:51:54Z</time>
      </trkpt>
      <trkpt lat="43.55847" lon="3.33116">
        <ele>241.471</ele>
        <time>2021-10-04T16:52:34Z</time>
      </trkpt>
      <trkpt lat="43.55828" lon="3.33152">
        <ele>240.67</ele>
        <time>2021-10-04T16:53:14Z</time>
      </trkpt>
      <trkpt lat="43.5581" lon="3.33192">
        <ele>242.065</ele>
        <time>2021-10-04T16:53:54Z</time>
      </trkpt>
      <trkpt lat="43.55784" lon="3.33269">
        <ele>246.324</ele>
        <time>2021-10-04T16:54:34Z</time>
      </trkpt>
      <trkpt lat="43.55767" lon="3.33335">
        <ele>247.389</ele>
        <time>2021-10-04T16:55:14Z</time>
      </trkpt>
      <trkpt lat="43.55737" lon="3.33381">
        <ele>252.328</ele>
        <time>2021-10-04T16:55:54Z</time>
      </trkpt>
      <trkpt lat="43.55717" lon="3.33409">
        <ele>254.85</ele>
        <time>2021-10-04T16:56:34Z</time>
      </trkpt>
      <trkpt lat="43.55702" lon="3.33445">
        <ele>257.234</ele>
        <time>2021-10-04T16:57:14Z</time>
      </trkpt>
      <trkpt lat="43.55691" lon="3.3348">
        <ele>258.214</ele>
        <time>2021-10-04T16:57:54Z</time>
      </trkpt>
      <trkpt lat="43.55682" lon="3.33539">
        <ele>259.154</ele>
        <time>2021-10-04T16:58:34Z</time>
      </trkpt>
      <trkpt lat="43.55671" lon="3.33599">
        <ele>263.009</ele>
        <time>2021-10-04T16:59:14Z</time>
      </trkpt>
      <trkpt lat="43.55661" lon="3.33656">
        <ele>267.108</ele>
        <time>2021-10-04T16:59:54Z</time>
      </trkpt>
      <trkpt lat="43.55662" lon="3.33689">
        <ele>266.417</ele>
        <time>2021-10-04T17:00:34Z</time>
      </trkpt>
      <trkpt lat="43.55658" lon="3.33747">
        <ele>267.366</ele>
        <time>2021-10-04T17:01:14Z</time>
      </trkpt>
      <trkpt lat="43.55641" lon="3.33813">
        <ele>271.771</ele>
        <time>2021-10-04T17:01:54Z</time>
      </trkpt>
      <trkpt lat="43.55623" lon="3.33876">
        <ele>282.12</ele>
        <time>2021-10-04T17:02:34Z</time>
      </trkpt>
      <trkpt lat="43.55626" lon="3.33936">
        <ele>281.435</ele>
        <time>2021-10-04T17:03:14Z</time>
      </trkpt>
      <trkpt lat="43.55619" lon="3.33994">
        <ele>281.144</ele>
        <time>2021-10-04T17:03:54Z</time>
      </trkpt>
      <trkpt lat="43.55616" lon="3.34044">
        <ele>286.036</ele>
        <time>2021-10-04T17:04:34Z</time>
      </trkpt>
      <trkpt lat="43.55635" lon="3.34091">
        <ele>288.45</ele>
        <time>2021-10-04T17:05:14Z</time>
      </trkpt>
      <trkpt lat="43.55681" lon="3.34121">
        <ele>283.397</ele>
        <time>2021-10-04T17:05:54Z</time>
      </trkpt>
      <trkpt lat="43.55707" lon="3.34136">
        <ele>281.823</ele>
        <time>2021-10-04T17:06:34Z</time>
      </trkpt>
      <trkpt lat="43.55728" lon="3.3417">
        <ele>279.225</ele>
        <time>2021-10-04T17:07:14Z</time>
      </trkpt>
      <trkpt lat="43.55738" lon="3.34204">
        <ele>274.908</ele>
        <time>2021-10-04T17:07:54Z</time>
      </trkpt>
      <trkpt lat="43.5574" lon="3.34241">
        <ele>271.615</ele>
        <time>2021-10-04T17:08:34Z</time>
      </trkpt>
      <trkpt lat="43.55752" lon="3.34292">
        <ele>268.424</ele>
        <time>2021-10-04T17:09:14Z</time>
      </trkpt>
      <trkpt lat="43.55768" lon="3.34358">
        <ele>267.069</ele>
        <time>2021-10-04T17:09:54Z</time>
      </trkpt>
      <trkpt lat="43.55781" lon="3.34418">
        <ele>268.458</ele>
        <time>2021-10-04T17:10:34Z</time>
      </trkpt>
      <trkpt lat="43.55792" lon="3.34467">
        <ele>270.883</ele>
        <time>2021-10-04T17:11:14Z</time>
      </trkpt>
      <trkpt lat="43.55786" lon="3.34504">
        <ele>275.412</ele>
        <time>2021-10-04T17:11:54Z</time>
      </trkpt>
      <trkpt lat="43.55793" lon="3.34534">
        <ele>278.654</ele>
        <time>2021-10-04T17:12:34Z</time>
      </trkpt>
      <trkpt lat="43.55805" lon="3.34578">
        <ele>283.658</ele>
        <time>2021-10-04T17:13:14Z</time>
      </trkpt>
      <trkpt lat="43.55827" lon="3.34653">
        <ele>273.661</ele>
        <time>2021-10-04T17:13:54Z</time>
      </trkpt>
      <trkpt lat="43.55844" lon="3.34705">
        <ele>271.721</ele>
        <time>2021-10-04T17:14:34Z</time>
      </trkpt>
      <trkpt lat="43.55853" lon="3.34771">
        <ele>272.313</ele>
        <time>2021-10-04T17:15:14Z</time>
      </trkpt>
      <trkpt lat="43.55868" lon="3.34831">
        <ele>271.908</ele>
        <time>2021-10-04T17:15:54Z</time>
      </trkpt>
      <trkpt lat="43.55879" lon="3.34888">
        <ele>269.382</ele>
        <time>2021-10-04T17:16:34Z</time>
      </trkpt>
      <trkpt lat="43.55907" lon="3.34981">
        <ele>267.361</ele>
        <time>2021-10-04T17:17:14Z</time>
      </trkpt>
      <trkpt lat="43.55928" lon="3.35088">
        <ele>265.566</ele>
        <time>2021-10-04T17:17:54Z</time>
      </trkpt>
      <trkpt lat="43.55945" lon="3.35211">
        <ele>257.665</ele>
        <time>2021-10-04T17:18:34Z</time>
      </trkpt>
      <trkpt lat="43.55945" lon="3.35283">
        <ele>255.71</ele>
        <time>2021-10-04T17:19:14Z</time>
      </trkpt>
      <trkpt lat="43.55941" lon="3.35319">
        <ele>253.679</ele>
        <time>2021-10-04T17:19:54Z</time>
      </trkpt>
      <trkpt lat="43.55918" lon="3.35369">
        <ele>243.431</ele>
        <time>2021-10-04T17:20:34Z</time>
      </trkpt>
      <trkpt lat="43.55933" lon="3.35396">
        <ele>235.885</ele>
        <time>2021-10-04T17:21:14Z</time>
      </trkpt>
      <trkpt lat="43.5596" lon="3.35427">
        <ele>228.968</ele>
        <time>2021-10-04T17:21:54Z</time>
      </trkpt>
      <trkpt lat="43.55984" lon="3.35446">
        <ele>225.642</ele>
        <time>2021-10-04T17:22:34Z</time>
      </trkpt>
      <trkpt lat="43.55999" lon="3.35474">
        <ele>223.326</ele>
        <time>2021-10-04T17:23:14Z</time>
      </trkpt>
      <trkpt lat="43.56037" lon="3.35567">
        <ele>236.108</ele>
        <time>2021-10-04T17:23:54Z</time>
      </trkpt>
      <trkpt lat="43.56076" lon="3.35624">
        <ele>244.812</ele>
        <time>2021-10-04T17:24:34Z</time>
      </trkpt>
      <trkpt lat="43.56093" lon="3.35662">
        <ele>251.061</ele>
        <time>2021-10-04T17:25:14Z</time>
      </trkpt>
      <trkpt lat="43.561" lon="3.35694">
        <ele>254.646</ele>
        <time>2021-10-04T17:25:54Z</time>
      </trkpt>
      <trkpt lat="43.56115" lon="3.35706">
        <ele>257.875</ele>
        <time>2021-10-04T17:26:34Z</time>
      </trkpt>
      <trkpt lat="43.56125" lon="3.35734">
        <ele>259.91</ele>
        <time>2021-10-04T17:27:14Z</time>
      </trkpt>
      <trkpt lat="43.56119" lon="3.35756">
        <ele>265.489</ele>
        <time>2021-10-04T17:27:54Z</time>
      </trkpt>
      <trkpt lat="43.56156" lon="3.35852">
        <ele>276.521</ele>
        <time>2021-10-04T17:28:34Z</time>
      </trkpt>
      <trkpt lat="43.56182" lon="3.35925">
        <ele>275.245</ele>
        <time>2021-10-04T17:29:14Z</time>
      </trkpt>
      <trkpt lat="43.56211" lon="3.35992">
        <ele>279.494</ele>
        <time>2021-10-04T17:29:54Z</time>
      </trkpt>
      <trkpt lat="43.56232" lon="3.36029">
        <ele>276.457</ele>
        <time>2021-10-04T17:30:34Z</time>
      </trkpt>
      <trkpt lat="43.56253" lon="3.36034">
        <ele>268.022</ele>
        <time>2021-10-04T17:31:14Z</time>
      </trkpt>
      <trkpt lat="43.56267" lon="3.36047">
        <ele>260.108</ele>
        <time>2021-10-04T17:31:54Z</time>
      </trkpt>
      <trkpt lat="43.56277" lon="3.36034">
        <ele>256.735</ele>
        <time>2021-10-04T17:32:34Z</time>
      </trkpt>
      <trkpt lat="43.56293" lon="3.36042">
        <ele>246.784</ele>
        <time>2021-10-04T17:33:14Z</time>
      </trkpt>
      <trkpt lat="43.563" lon="3.36032">
        <ele>242.999</ele>
        <time>2021-10-04T17:33:54Z</time>
      </trkpt>
      <trkpt lat="43.56313" lon="3.3604">
        <ele>235.338</ele>
        <time>2021-10-04T17:34:34Z</time>
      </trkpt>
      <trkpt lat="43.56319" lon="3.36026">
        <ele>231.853</ele>
        <time>2021-10-04T17:35:14Z</time>
      </trkpt>
      <trkpt lat="43.56335" lon="3.36031">
        <ele>224.152</ele>
        <time>2021-10-04T17:35:54Z</time>
      </trkpt>
      <trkpt lat="43.56345" lon="3.36019">
        <ele>216.764</ele>
        <time>2021-10-04T17:36:34Z</time>
      </trkpt>
      <trkpt lat="43.56356" lon="3.36028">
        <ele>212.088</ele>
        <time>2021-10-04T17:37:14Z</time>
      </trkpt>
      <trkpt lat="43.56358" lon="3.36015">
        <ele>209.184</ele>
        <time>2021-10-04T17:37:54Z</time>
      </trkpt>
      <trkpt lat="43.56376" lon="3.3602">
        <ele>200.807</ele>
        <time>2021-10-04T17:38:34Z</time>
      </trkpt>
      <trkpt lat="43.56376" lon="3.35996">
        <ele>197.217</ele>
        <time>2021-10-04T17:39:14Z</time>
      </trkpt>
      <trkpt lat="43.56375" lon="3.35926">
        <ele>188.708</ele>
        <time>2021-10-04T17:39:54Z</time>
      </trkpt>
      <trkpt lat="43.56374" lon="3.35877">
        <ele>185.314</ele>
        <time>2021-10-04T17:40:34Z</time>
      </trkpt>
      <trkpt lat="43.56379" lon="3.35865">
        <ele>182.143</ele>
        <time>2021-10-04T17:41:14Z</time>
      </trkpt>
      <trkpt lat="43.56374" lon="3.35852">
        <ele>179.918</ele>
        <time>2021-10-04T17:41:54Z</time>
      </trkpt>
      <trkpt lat="43.56377" lon="3.35827">
        <ele>170.777</ele>
        <time>2021-10-04T17:42:34Z</time>
      </trkpt>
      <trkpt lat="43.56381" lon="3.358">
        <ele>160.942</ele>
        <time>2021-10-04T17:43:14Z</time>
      </trkpt>
      <trkpt lat="43.56397" lon="3.35789">
        <ele>154.871</ele>
        <time>2021-10-04T17:43:54Z</time>
      </trkpt>
      <trkpt lat="43.564" lon="3.35783">
        <ele>152.213</ele>
        <time>2021-10-04T17:44:34Z</time>
      </trkpt>
      <trkpt lat="43.56415" lon="3.35756">
        <ele>141.467</ele>
        <time>2021-10-04T17:45:14Z</time>
      </trkpt>
      <trkpt lat="43.56426" lon="3.35739">
        <ele>134.675</ele>
        <time>2021-10-04T17:45:54Z</time>
      </trkpt>
      <trkpt lat="43.56437" lon="3.35724">
        <ele>129.128</ele>
        <time>2021-10-04T17:46:34Z</time>
      </trkpt>
      <trkpt lat="43.56433" lon="3.35716">
        <ele>129.12</ele>
        <time>2021-10-04T17:47:14Z</time>
      </trkpt>
      <trkpt lat="43.56426" lon="3.35712">
        <ele>130.208</ele>
        <time>2021-10-04T17:47:54Z</time>
      </trkpt>
      <trkpt lat="43.56417" lon="3.35708">
        <ele>131.953</ele>
        <time>2021-10-04T17:48:34Z</time>
      </trkpt>
      <trkpt lat="43.56398" lon="3.35693">
        <ele>137.072</ele>
        <time>2021-10-04T17:49:14Z</time>
      </trkpt>
      <trkpt lat="43.56397" lon="3.35676">
        <ele>134.067</ele>
        <time>2021-10-04T17:49:54Z</time>
      </trkpt>
      <trkpt lat="43.56405" lon="3.3567">
        <ele>130.686</ele>
        <time>2021-10-04T17:50:34Z</time>
      </trkpt>
      <trkpt lat="43.56427" lon="3.35674">
        <ele>125.131</ele>
        <time>2021-10-04T17:51:14Z</time>
      </trkpt>
      <trkpt lat="43.56444" lon="3.35673">
        <ele>120.27</ele>
        <time>2021-10-04T17:51:54Z</time>
      </trkpt>
      <trkpt lat="43.56464" lon="3.35674">
        <ele>116.522</ele>
        <time>2021-10-04T17:52:34Z</time>
      </trkpt>
      <trkpt lat="43.5648" lon="3.35689">
        <ele>115.516</ele>
        <time>2021-10-04T17:53:14Z</time>
      </trkpt>
      <trkpt lat="43.5649" lon="3.35696">
        <ele>113.779</ele>
        <time>2021-10-04T17:53:54Z</time>
      </trkpt>
      <trkpt lat="43.56494" lon="3.35677">
        <ele>111.005</ele>
        <time>2021-10-04T17:54:34Z</time>
      </trkpt>
      <trkpt lat="43.56497" lon="3.35644">
        <ele>109.925</ele>
        <time>2021-10-04T17:55:14Z</time>
      </trkpt>
      <trkpt lat="43.56525" lon="3.35642">
        <ele>109.908</ele>
        <time>2021-10-04T17:55:54Z</time>
      </trkpt>
      <trkpt lat="43.56556" lon="3.35696">
        <ele>108.053</ele>
        <time>2021-10-04T17:56:34Z</time>
      </trkpt>
      <trkpt lat="43.56574" lon="3.35819">
        <ele>103.212</ele>
        <time>2021-10-04T17:57:14Z</time>
      </trkpt>
      <trkpt lat="43.56594" lon="3.35871">
        <ele>102.057</ele>
        <time>2021-10-04T17:57:54Z</time>
      </trkpt>
      <trkpt lat="43.56634" lon="3.35933">
        <ele>103.196</ele>
        <time>2021-10-04T17:58:34Z</time>
      </trkpt>
      <trkpt lat="43.56682" lon="3.35979">
        <ele>106.111</ele>
        <time>2021-10-04T17:59:14Z</time>
      </trkpt>
      <trkpt lat="43.5672" lon="3.36032">
        <ele>110.17</ele>
        <time>2021-10-04T17:59:54Z</time>
      </trkpt>
      <trkpt lat="43.56761" lon="3.36047">
        <ele>112.642</ele>
        <time>2021-10-04T18:00:34Z</time>
      </trkpt>
      <trkpt lat="43.56766" lon="3.36065">
        <ele>112.546</ele>
        <time>2021-10-04T18:01:14Z</time>
      </trkpt>
      <trkpt lat="43.5677" lon="3.3611">
        <ele>113.651</ele>
        <time>2021-10-04T18:01:54Z</time>
      </trkpt>
      <trkpt lat="43.56781" lon="3.36151">
        <ele>117.801</ele>
        <time>2021-10-04T18:02:34Z</time>
      </trkpt>
      <trkpt lat="43.56805" lon="3.36189">
        <ele>119.411</ele>
        <time>2021-10-04T18:03:14Z</time>
      </trkpt>
      <trkpt lat="43.56812" lon="3.36199">
        <ele>118.908</ele>
        <time>2021-10-04T18:03:54Z</time>
      </trkpt>
      <trkpt lat="43.56828" lon="3.36224">
        <ele>115.281</ele>
        <time>2021-10-04T18:04:34Z</time>
      </trkpt>
      <trkpt lat="43.56853" lon="3.36243">
        <ele>113.55</ele>
        <time>2021-10-04T18:05:14Z</time>
      </trkpt>
      <trkpt lat="43.56877" lon="3.36262">
        <ele>112.635</ele>
        <time>2021-10-04T18:05:54Z</time>
      </trkpt>
      <trkpt lat="43.56896" lon="3.36279">
        <ele>109.494</ele>
        <time>2021-10-04T18:06:34Z</time>
      </trkpt>
      <trkpt lat="43.56925" lon="3.36276">
        <ele>109.119</ele>
        <time>2021-10-04T18:07:14Z</time>
      </trkpt>
      <trkpt lat="43.56951" lon="3.36262">
        <ele>109.628</ele>
        <time>2021-10-04T18:07:54Z</time>
      </trkpt>
      <trkpt lat="43.56981" lon="3.36254">
        <ele>109.22</ele>
        <time>2021-10-04T18:08:34Z</time>
      </trkpt>
      <trkpt lat="43.5703" lon="3.36265">
        <ele>110.494</ele>
        <time>2021-10-04T18:09:14Z</time>
      </trkpt>
      <trkpt lat="43.5707" lon="3.36272">
        <ele>111.092</ele>
        <time>2021-10-04T18:09:54Z</time>
      </trkpt>
      <trkpt lat="43.57102" lon="3.3628">
        <ele>108.873</ele>
        <time>2021-10-04T18:10:34Z</time>
      </trkpt>
      <trkpt lat="43.57126" lon="3.36301">
        <ele>107.12</ele>
        <time>2021-10-04T18:11:14Z</time>
      </trkpt>
      <trkpt lat="43.57147" lon="3.36317">
        <ele>105.908</ele>
        <time>2021-10-04T18:11:54Z</time>
      </trkpt>
      <trkpt lat="43.57186" lon="3.36325">
        <ele>105.815</ele>
        <time>2021-10-04T18:12:34Z</time>
      </trkpt>
      <trkpt lat="43.57242" lon="3.36339">
        <ele>102.844</ele>
        <time>2021-10-04T18:13:14Z</time>
      </trkpt>
      <trkpt lat="43.57297" lon="3.36351">
        <ele>102.099</ele>
        <time>2021-10-04T18:13:54Z</time>
      </trkpt>
      <trkpt lat="43.57319" lon="3.36356">
        <ele>102.158</ele>
        <time>2021-10-04T18:14:34Z</time>
      </trkpt>
    </trkseg>
  </trk>
</gpx>